Allure of the Seas — C6XS8 — position and weather

sailwx.info

Track history (hours):
 
Tides and Currents Weather Stations Pressure Air Temp Water Temp Dewpoint Dewpoint Depression Visibility Wind Speed Wind Dir Waves Ship Positions

Allure of the Seas

Last reported at 2017-Apr-23 21:33 UTC. Time now 2017-Apr-25 02:54 UTC.
Position N 26°05' W 080°05'.

Length 362 m; draft 9.3 m.

Type: Passenger vessel. MMSI: 311020700.

Date/timePositionNaut miles runAvg speedWind from/ knotsBaromVisibWave heightAir tempDewpointWater temp
2017-Apr-23 21:33N 26°05' W 080°05'010.6
2017-Apr-23 21:30N 26°06' W 080°05'2 2.4
2017-Apr-23 20:43N 26°05' W 080°07'0 0.0
2017-Apr-23 19:16N 26°05' W 080°07'0 0.0
2017-Apr-23 18:19N 26°05' W 080°07'0 0.0
2017-Apr-23 17:19N 26°05' W 080°07'0 0.0
2017-Apr-23 16:49N 26°05' W 080°07'0 0.0
2017-Apr-23 16:22N 26°05' W 080°07'0 0.0
2017-Apr-23 15:55N 26°05' W 080°07'0 0.0
2017-Apr-23 15:19N 26°05' W 080°07'0 0.0
2017-Apr-23 14:49N 26°05' W 080°07'0 0.0
2017-Apr-23 14:19N 26°05' W 080°07'0 0.0
2017-Apr-23 12:01N 26°05' W 080°07'0 0.0
2017-Apr-23 11:55N 26°05' W 080°07'0 0.0
2017-Apr-23 11:10N 26°05' W 080°07'0 0.0
2017-Apr-23 10:49N 26°05' W 080°07'0 0.0
2017-Apr-23 10:19N 26°05' W 080°07'0 0.1
2017-Apr-23 10:00N 26°05' W 080°07'3 5.4
2017-Apr-23 09:30N 26°06' W 080°04'5 9.2
2017-Apr-23 09:00N 26°03' W 079°60'611.3
2017-Apr-23 08:30N 25°57' W 079°59'5 9.9
2017-Apr-23 08:00N 25°53' W 079°59'816.4
2017-Apr-23 07:30N 25°44' W 079°58'1020.5
2017-Apr-23 07:00N 25°34' W 079°57'1020.2
2017-Apr-23 06:30N 25°24' W 079°56'18114.4
2017-Apr-22 18:00N 23°30' W 082°30'9515.9 080 / 151011.1 27.8 29.2
2017-Apr-22 12:00N 22°54' W 084°06'21317.0 130 / 181011.0 26.0 29.0
2017-Apr-21 23:29N 20°35' W 086°59'511.0
2017-Apr-21 23:00N 20°29' W 086°59'0 0.7
2017-Apr-21 22:30N 20°29' W 086°59'0 0.0
2017-Apr-21 22:00N 20°29' W 086°59'0 0.0
2017-Apr-21 21:30N 20°29' W 086°59'0 0.0
2017-Apr-21 21:00N 20°29' W 086°59'0 0.0
2017-Apr-21 20:30N 20°29' W 086°59'0 0.0
2017-Apr-21 19:57N 20°29' W 086°59'0 0.0
2017-Apr-21 19:30N 20°29' W 086°59'0 0.0
2017-Apr-21 19:00N 20°29' W 086°59'0 0.0
2017-Apr-21 18:30N 20°29' W 086°59'0 0.0
2017-Apr-21 18:00N 20°29' W 086°59'0 0.0
2017-Apr-21 17:30N 20°29' W 086°59'0 0.0
2017-Apr-21 17:00N 20°29' W 086°59'0 0.0
2017-Apr-21 16:30N 20°29' W 086°59'0 0.0
2017-Apr-21 16:00N 20°29' W 086°59'0 0.0
2017-Apr-21 15:30N 20°29' W 086°59'0 0.0
2017-Apr-21 14:57N 20°29' W 086°59'0 0.0
2017-Apr-21 14:27N 20°29' W 086°59'0 0.0
2017-Apr-21 13:30N 20°29' W 086°59'0 0.0
2017-Apr-21 12:57N 20°29' W 086°59'0 0.0
2017-Apr-21 12:30N 20°29' W 086°59'0 0.0
2017-Apr-21 11:57N 20°29' W 086°59'1 1.6
2017-Apr-21 11:31N 20°30' W 086°59'4 8.0
2017-Apr-21 11:00N 20°34' W 086°58'510.4
2017-Apr-21 10:30N 20°38' W 086°55'32214.3
2017-Apr-20 12:00N 19°36' W 081°18'   100 / 141016.0 25.023.529.0
2017-Apr-16 23:36N 25°40' W 079°56'113.4
2017-Apr-16 23:30N 25°41' W 079°57'613.3
2017-Apr-16 23:00N 25°48' W 079°59'713.6
2017-Apr-16 22:31N 25°54' W 080°01'714.1
2017-Apr-16 22:01N 26°01' W 080°03'510.0
2017-Apr-16 21:30N 26°06' W 080°05'2 3.5
2017-Apr-16 20:59N 26°05' W 080°07'0 0.0
2017-Apr-16 20:26N 26°05' W 080°07'0 0.0
2017-Apr-16 19:59N 26°05' W 080°07'0 0.0
2017-Apr-16 19:29N 26°05' W 080°07'0 0.0
2017-Apr-16 18:59N 26°05' W 080°07'0 0.0
2017-Apr-16 18:29N 26°05' W 080°07'0 0.0
2017-Apr-16 17:59N 26°05' W 080°07'0 0.0
2017-Apr-16 17:29N 26°05' W 080°07'0 0.0
2017-Apr-16 16:59N 26°05' W 080°07'0 0.0
2017-Apr-16 16:29N 26°05' W 080°07'0 0.0
2017-Apr-16 15:59N 26°05' W 080°07'0 0.0
2017-Apr-16 15:29N 26°05' W 080°07'0 0.0
2017-Apr-16 14:59N 26°05' W 080°07'0 0.0
2017-Apr-16 14:29N 26°05' W 080°07'0 0.0
2017-Apr-16 13:29N 26°05' W 080°07'0 0.0
2017-Apr-16 12:59N 26°05' W 080°07'0 0.0
2017-Apr-16 12:29N 26°05' W 080°07'0 0.0
2017-Apr-16 11:59N 26°05' W 080°07'0 0.0
2017-Apr-16 11:29N 26°05' W 080°07'0 0.0
2017-Apr-16 10:59N 26°05' W 080°07'0 0.0
2017-Apr-16 10:29N 26°05' W 080°07'0 0.0
2017-Apr-16 10:00N 26°05' W 080°07'2 4.1
2017-Apr-16 09:31N 26°06' W 080°05'611.2
2017-Apr-16 09:00N 26°06' W 079°59'714.6
2017-Apr-16 08:30N 26°07' W 079°51'714.8
2017-Apr-16 08:00N 26°08' W 079°43'815.1
2017-Apr-16 07:30N 26°09' W 079°34'815.3
2017-Apr-16 07:00N 26°10' W 079°26'33517.6
2017-Apr-15 12:00N 24°06' W 073°42'46419.3 040 / 331019.0 5.4 25.022.026.0
2017-Apr-14 12:00N 20°12' W 066°30'22016.9 240 / 81015.010.8 25.022.026.0
2017-Apr-13 23:01N 18°06' W 063°19'118.4
2017-Apr-13 22:58N 18°06' W 063°18'816.4
2017-Apr-13 22:30N 18°02' W 063°12'712.3
2017-Apr-13 21:56N 18°00' W 063°05'  
Track history (hours):
 
Tides and Currents Weather Stations Pressure Air Temp Water Temp Dewpoint Dewpoint Depression Visibility Wind Speed Wind Dir Waves Ship Positions

Allure of the Seas

Last reported at 2017-Apr-23 21:33 UTC. Time now 2017-Apr-25 02:54 UTC.
Position N 26°05' W 080°05'.

Length 362 m; draft 9.3 m.

Type: Passenger vessel. MMSI: 311020700.

Date/timePositionNaut miles runAvg speedWind from/ knotsBaromVisibWave heightAir tempDewpointWater temp
2017-Apr-23 21:33N 26°05' W 080°05'010.6
2017-Apr-23 21:30N 26°06' W 080°05'2 2.4
2017-Apr-23 20:43N 26°05' W 080°07'0 0.0
2017-Apr-23 19:16N 26°05' W 080°07'0 0.0
2017-Apr-23 18:19N 26°05' W 080°07'0 0.0
2017-Apr-23 17:19N 26°05' W 080°07'0 0.0
2017-Apr-23 16:49N 26°05' W 080°07'0 0.0
2017-Apr-23 16:22N 26°05' W 080°07'0 0.0
2017-Apr-23 15:55N 26°05' W 080°07'0 0.0
2017-Apr-23 15:19N 26°05' W 080°07'0 0.0
2017-Apr-23 14:49N 26°05' W 080°07'0 0.0
2017-Apr-23 14:19N 26°05' W 080°07'0 0.0
2017-Apr-23 12:01N 26°05' W 080°07'0 0.0
2017-Apr-23 11:55N 26°05' W 080°07'0 0.0
2017-Apr-23 11:10N 26°05' W 080°07'0 0.0
2017-Apr-23 10:49N 26°05' W 080°07'0 0.0
2017-Apr-23 10:19N 26°05' W 080°07'0 0.1
2017-Apr-23 10:00N 26°05' W 080°07'3 5.4
2017-Apr-23 09:30N 26°06' W 080°04'5 9.2
2017-Apr-23 09:00N 26°03' W 079°60'611.3
2017-Apr-23 08:30N 25°57' W 079°59'5 9.9
2017-Apr-23 08:00N 25°53' W 079°59'816.4
2017-Apr-23 07:30N 25°44' W 079°58'1020.5
2017-Apr-23 07:00N 25°34' W 079°57'1020.2
2017-Apr-23 06:30N 25°24' W 079°56'18114.4
2017-Apr-22 18:00N 23°30' W 082°30'9515.9 080 / 151011.1 27.8 29.2
2017-Apr-22 12:00N 22°54' W 084°06'21317.0 130 / 181011.0 26.0 29.0
2017-Apr-21 23:29N 20°35' W 086°59'511.0
2017-Apr-21 23:00N 20°29' W 086°59'0 0.7
2017-Apr-21 22:30N 20°29' W 086°59'0 0.0
2017-Apr-21 22:00N 20°29' W 086°59'0 0.0
2017-Apr-21 21:30N 20°29' W 086°59'0 0.0
2017-Apr-21 21:00N 20°29' W 086°59'0 0.0
2017-Apr-21 20:30N 20°29' W 086°59'0 0.0
2017-Apr-21 19:57N 20°29' W 086°59'0 0.0
2017-Apr-21 19:30N 20°29' W 086°59'0 0.0
2017-Apr-21 19:00N 20°29' W 086°59'0 0.0
2017-Apr-21 18:30N 20°29' W 086°59'0 0.0
2017-Apr-21 18:00N 20°29' W 086°59'0 0.0
2017-Apr-21 17:30N 20°29' W 086°59'0 0.0
2017-Apr-21 17:00N 20°29' W 086°59'0 0.0
2017-Apr-21 16:30N 20°29' W 086°59'0 0.0
2017-Apr-21 16:00N 20°29' W 086°59'0 0.0
2017-Apr-21 15:30N 20°29' W 086°59'0 0.0
2017-Apr-21 14:57N 20°29' W 086°59'0 0.0
2017-Apr-21 14:27N 20°29' W 086°59'0 0.0
2017-Apr-21 13:30N 20°29' W 086°59'0 0.0
2017-Apr-21 12:57N 20°29' W 086°59'0 0.0
2017-Apr-21 12:30N 20°29' W 086°59'0 0.0
2017-Apr-21 11:57N 20°29' W 086°59'1 1.6
2017-Apr-21 11:31N 20°30' W 086°59'4 8.0
2017-Apr-21 11:00N 20°34' W 086°58'510.4
2017-Apr-21 10:30N 20°38' W 086°55'32214.3
2017-Apr-20 12:00N 19°36' W 081°18'   100 / 141016.0 25.023.529.0
2017-Apr-16 23:36N 25°40' W 079°56'113.4
2017-Apr-16 23:30N 25°41' W 079°57'613.3
2017-Apr-16 23:00N 25°48' W 079°59'713.6
2017-Apr-16 22:31N 25°54' W 080°01'714.1
2017-Apr-16 22:01N 26°01' W 080°03'510.0
2017-Apr-16 21:30N 26°06' W 080°05'2 3.5
2017-Apr-16 20:59N 26°05' W 080°07'0 0.0
2017-Apr-16 20:26N 26°05' W 080°07'0 0.0
2017-Apr-16 19:59N 26°05' W 080°07'0 0.0
2017-Apr-16 19:29N 26°05' W 080°07'0 0.0
2017-Apr-16 18:59N 26°05' W 080°07'0 0.0
2017-Apr-16 18:29N 26°05' W 080°07'0 0.0
2017-Apr-16 17:59N 26°05' W 080°07'0 0.0
2017-Apr-16 17:29N 26°05' W 080°07'0 0.0
2017-Apr-16 16:59N 26°05' W 080°07'0 0.0
2017-Apr-16 16:29N 26°05' W 080°07'0 0.0
2017-Apr-16 15:59N 26°05' W 080°07'0 0.0
2017-Apr-16 15:29N 26°05' W 080°07'0 0.0
2017-Apr-16 14:59N 26°05' W 080°07'0 0.0
2017-Apr-16 14:29N 26°05' W 080°07'0 0.0
2017-Apr-16 13:29N 26°05' W 080°07'0 0.0
2017-Apr-16 12:59N 26°05' W 080°07'0 0.0
2017-Apr-16 12:29N 26°05' W 080°07'0 0.0
2017-Apr-16 11:59N 26°05' W 080°07'0 0.0
2017-Apr-16 11:29N 26°05' W 080°07'0 0.0
2017-Apr-16 10:59N 26°05' W 080°07'0 0.0
2017-Apr-16 10:29N 26°05' W 080°07'0 0.0
2017-Apr-16 10:00N 26°05' W 080°07'2 4.1
2017-Apr-16 09:31N 26°06' W 080°05'611.2
2017-Apr-16 09:00N 26°06' W 079°59'714.6
2017-Apr-16 08:30N 26°07' W 079°51'714.8
2017-Apr-16 08:00N 26°08' W 079°43'815.1
2017-Apr-16 07:30N 26°09' W 079°34'815.3
2017-Apr-16 07:00N 26°10' W 079°26'33517.6
2017-Apr-15 12:00N 24°06' W 073°42'46419.3 040 / 331019.0 5.4 25.022.026.0
2017-Apr-14 12:00N 20°12' W 066°30'22016.9 240 / 81015.010.8 25.022.026.0
2017-Apr-13 23:01N 18°06' W 063°19'118.4
2017-Apr-13 22:58N 18°06' W 063°18'816.4
2017-Apr-13 22:30N 18°02' W 063°12'712.3
2017-Apr-13 21:56N 18°00' W 063°05'  

Dump ship's entire track history